Time;durP1;ratioP1;P1;durP2;ratioP2;P2;SDS_P1;SDS_P2;PMS_P1;PMS_P2;Temp;Humidity;BMP_temperature;BMP_pressure;BME280_temperature;BME280_humidity;BME280_pressure;Samples;Min_cycle;Max_cycle;Signal;HPM_P1;HPM_P2
2023/07/15 00:01:20;;;;;;;6.18;2.55;;;;;;;22.36;55.50;101068.63;5095293;28;20035;-54
2023/07/15 00:03:51;;;;;;;6.30;3.05;;;;;;;21.78;55.90;101063.59;5093971;28;20032;-54
2023/07/15 00:06:20;;;;;;;5.90;3.08;;;;;;;21.39;57.60;101071.53;5094123;28;20024;-54
2023/07/15 00:08:47;;;;;;;6.68;3.80;;;;;;;21.16;59.19;101072.84;5086197;28;20035;-56
2023/07/15 00:11:41;;;;;;;9.43;4.10;;;;;;;20.89;59.00;101072.28;5094732;28;20031;-54
2023/07/15 00:14:22;;;;;;;5.72;3.65;;;;;;;20.88;59.85;101076.09;5074679;28;20162;-54
2023/07/15 00:16:49;;;;;;;9.43;5.00;;;;;;;20.99;60.28;101075.00;5087650;28;20066;-53
2023/07/15 00:19:22;;;;;;;8.88;4.50;;;;;;;20.52;60.63;101074.06;5095234;28;20051;-53
2023/07/15 00:21:48;;;;;;;10.65;5.78;;;;;;;20.81;60.37;101065.44;5094994;28;20031;-53
2023/07/15 00:24:15;;;;;;;9.48;4.50;;;;;;;20.72;60.53;101077.94;5095278;28;20027;-53
2023/07/15 00:26:42;;;;;;;9.50;5.13;;;;;;;20.65;60.59;101064.56;5095394;28;20024;-53
2023/07/15 00:29:08;;;;;;;8.30;4.75;;;;;;;20.35;61.04;101064.44;5095212;28;20658;-52
2023/07/15 00:31:35;;;;;;;7.15;4.10;;;;;;;20.24;61.99;101058.97;5094890;28;20020;-52
2023/07/15 00:34:02;;;;;;;6.18;4.35;;;;;;;20.14;62.20;101069.78;5094923;28;20073;-53
2023/07/15 00:36:32;;;;;;;8.95;4.63;;;;;;;20.18;62.34;101060.03;5093413;28;20132;-52
2023/07/15 00:38:58;;;;;;;8.65;5.28;;;;;;;19.94;64.29;101062.34;5094493;28;20042;-53
2023/07/15 00:41:30;;;;;;;7.53;4.53;;;;;;;19.93;63.23;101059.88;5059859;28;20476;-53
2023/07/15 00:44:05;;;;;;;6.97;4.40;;;;;;;20.03;62.45;101060.75;5093243;28;20039;-53
2023/07/15 00:46:49;;;;;;;7.60;4.30;;;;;;;19.87;63.02;101053.59;5075626;28;20052;-52
2023/07/15 00:49:26;;;;;;;8.82;4.25;;;;;;;19.65;63.81;101052.91;5073046;28;20028;-53
2023/07/15 00:52:01;;;;;;;6.15;4.10;;;;;;;19.62;64.71;101048.84;5082977;28;20070;-54
2023/07/15 00:54:32;;;;;;;7.78;4.35;;;;;;;19.68;64.32;101055.13;5094391;28;20908;-53
2023/07/15 00:57:00;;;;;;;8.18;4.97;;;;;;;19.64;64.68;101052.09;5094650;28;20020;-51
2023/07/15 00:59:27;;;;;;;6.72;4.40;;;;;;;19.70;63.49;101045.63;5076743;28;20077;-54
2023/07/15 01:01:54;;;;;;;8.02;4.88;;;;;;;19.70;63.94;101045.63;5094255;28;20024;-50
2023/07/15 01:04:21;;;;;;;9.23;4.60;;;;;;;19.38;65.04;101040.22;5074255;28;20082;-54
2023/07/15 01:06:48;;;;;;;10.18;5.57;;;;;;;19.41;65.40;101041.59;5074255;28;20378;-57
2023/07/15 01:09:15;;;;;;;13.10;5.18;;;;;;;19.24;65.47;101042.53;5078155;28;20101;-51
2023/07/15 01:11:41;;;;;;;7.63;4.38;;;;;;;19.33;65.18;101034.75;5083483;28;20084;-53
2023/07/15 01:14:12;;;;;;;8.15;4.97;;;;;;;19.34;65.53;101039.09;5077232;28;20478;-53
2023/07/15 01:16:40;;;;;;;6.18;3.95;;;;;;;19.04;66.71;101046.97;5082495;28;20059;-51
2023/07/15 01:19:06;;;;;;;6.55;4.50;;;;;;;19.09;66.44;101038.88;5092290;28;20028;-53
2023/07/15 01:21:34;;;;;;;7.53;4.65;;;;;;;19.14;66.13;101037.00;5078791;28;20039;-53
2023/07/15 01:24:01;;;;;;;7.80;4.30;;;;;;;18.68;68.03;101033.06;5073724;28;20191;-49
2023/07/15 01:26:28;;;;;;;7.82;4.65;;;;;;;18.80;67.83;101039.13;5077378;28;20032;-50
2023/07/15 01:28:54;;;;;;;9.45;4.97;;;;;;;18.86;66.92;101029.16;5093717;28;20054;-50
2023/07/15 01:31:20;;;;;;;8.77;4.53;;;;;;;18.99;66.66;101035.00;5093591;28;20044;-47
2023/07/15 01:33:47;;;;;;;8.95;5.18;;;;;;;18.88;67.25;101035.97;5073389;28;20378;-48
2023/07/15 01:36:13;;;;;;;7.38;4.93;;;;;;;18.84;67.66;101034.84;5093780;28;20051;-49
2023/07/15 01:38:40;;;;;;;8.43;5.13;;;;;;;18.82;67.47;101039.72;5092103;28;20040;-46
2023/07/15 01:41:06;;;;;;;7.53;4.13;;;;;;;18.76;67.24;101039.91;5092921;28;20028;-47
2023/07/15 01:43:33;;;;;;;9.98;4.65;;;;;;;18.70;68.01;101033.59;5093465;28;20387;-50
2023/07/15 01:45:59;;;;;;;11.25;5.75;;;;;;;18.54;68.28;101043.44;5084289;28;20510;-48
2023/07/15 01:48:26;;;;;;;8.07;5.13;;;;;;;18.50;68.03;101034.19;5078405;28;20040;-46
2023/07/15 01:50:52;;;;;;;8.43;5.22;;;;;;;18.27;69.02;101037.16;5072053;28;20024;-51
2023/07/15 01:53:18;;;;;;;9.65;5.15;;;;;;;18.56;68.27;101035.06;5083824;28;20059;-51
2023/07/15 01:55:45;;;;;;;8.13;5.10;;;;;;;18.34;68.73;101032.38;5090531;28;20030;-51
2023/07/15 01:58:11;;;;;;;12.40;4.45;;;;;;;18.18;69.54;101034.06;5084192;28;20107;-51
2023/07/15 02:00:37;;;;;;;9.23;4.97;;;;;;;17.86;70.40;101050.16;5090609;28;20028;-45
2023/07/15 02:03:03;;;;;;;10.90;5.00;;;;;;;17.53;71.80;101040.97;5091646;28;20027;-51
2023/07/15 02:05:30;;;;;;;10.45;5.20;;;;;;;17.83;71.25;101040.66;5072177;28;20060;-50
2023/07/15 02:07:56;;;;;;;6.18;4.80;;;;;;;17.78;71.25;101040.56;5079344;28;20532;-51
2023/07/15 02:10:23;;;;;;;8.85;4.63;;;;;;;17.80;71.24;101033.00;5070476;28;20024;-51
2023/07/15 02:12:50;;;;;;;10.80;5.15;;;;;;;17.95;69.85;101037.84;5075323;28;20500;-49
2023/07/15 02:15:16;;;;;;;9.43;5.15;;;;;;;17.83;70.88;101037.94;5092932;28;20032;-49
2023/07/15 02:17:43;;;;;;;8.30;4.57;;;;;;;18.42;68.80;101032.72;5082306;28;20474;-47
2023/07/15 02:20:12;;;;;;;6.82;5.35;;;;;;;18.52;67.75;101034.75;5092757;28;20040;-48
2023/07/15 02:22:41;;;;;;;10.60;5.70;;;;;;;18.31;68.31;101032.88;5092698;28;20387;-48
2023/07/15 02:25:08;;;;;;;10.25;6.13;;;;;;;18.52;67.46;101037.44;5093139;28;20020;-48
2023/07/15 02:27:34;;;;;;;8.23;5.53;;;;;;;18.67;67.21;101036.81;5092878;28;20034;-48
2023/07/15 02:30:01;;;;;;;8.05;4.95;;;;;;;18.80;66.39;101038.31;5085153;28;20024;-51
2023/07/15 02:32:42;;;;;;;7.55;4.82;;;;;;;19.06;65.38;101040.22;5086924;28;20020;-48
2023/07/15 02:35:10;;;;;;;8.20;5.47;;;;;;;18.13;68.82;101034.00;5092700;28;20385;-51
2023/07/15 02:37:41;;;;;;;7.45;5.45;;;;;;;17.64;70.09;101055.47;5085636;28;20021;-49
2023/07/15 02:40:09;;;;;;;7.85;5.78;;;;;;;16.61;74.96;101049.38;5075161;28;20114;-51
2023/07/15 02:42:36;;;;;;;9.50;5.10;;;;;;;16.69;75.23;101045.44;5092513;28;20028;-50
2023/07/15 02:45:04;;;;;;;8.80;5.70;;;;;;;16.15;77.62;101036.78;5092685;28;20031;-51
2023/07/15 02:47:34;;;;;;;11.60;7.00;;;;;;;15.75;80.00;101049.16;5078003;28;20407;-47
2023/07/15 02:50:04;;;;;;;11.10;6.90;;;;;;;15.65;80.67;101046.22;5074839;28;20035;-51
2023/07/15 02:52:32;;;;;;;10.75;6.22;;;;;;;15.64;81.04;101051.88;5077346;28;20104;-51
2023/07/15 02:55:00;;;;;;;8.48;6.03;;;;;;;15.34;83.19;101055.44;5070575;28;20055;-51
2023/07/15 02:57:30;;;;;;;12.95;6.43;;;;;;;15.20;84.32;101048.59;5082211;28;20052;-47
2023/07/15 02:59:56;;;;;;;10.52;6.90;;;;;;;14.93;85.81;101040.91;5080467;28;20074;-47
2023/07/15 03:02:23;;;;;;;12.45;7.05;;;;;;;14.86;86.69;101052.84;5079858;28;20024;-48
2023/07/15 03:04:51;;;;;;;10.43;6.97;;;;;;;14.70;87.61;101057.81;5074553;28;20115;-50
2023/07/15 03:07:18;;;;;;;9.60;6.75;;;;;;;14.74;87.67;101061.72;5088074;28;20119;-47
2023/07/15 03:09:47;;;;;;;11.20;6.55;;;;;;;14.52;88.77;101047.09;5072220;28;20020;-51
2023/07/15 03:12:13;;;;;;;8.77;6.55;;;;;;;14.59;88.86;101055.09;5072093;28;20443;-50
2023/07/15 03:14:41;;;;;;;9.40;6.43;;;;;;;14.42;89.73;101047.59;5087062;28;20121;-48
2023/07/15 03:17:09;;;;;;;13.32;7.32;;;;;;;14.29;90.80;101055.84;5084998;28;20027;-48
2023/07/15 03:19:37;;;;;;;8.07;5.68;;;;;;;14.38;89.89;101054.50;5091199;28;20107;-50
2023/07/15 03:22:04;;;;;;;15.02;7.47;;;;;;;14.35;90.82;101054.94;5091654;28;20043;-49
2023/07/15 03:24:31;;;;;;;16.15;7.22;;;;;;;14.25;91.88;101057.34;5084197;28;20041;-47
2023/07/15 03:26:57;;;;;;;9.73;7.00;;;;;;;14.02;93.42;101059.88;5080651;28;20043;-49
2023/07/15 03:29:23;;;;;;;10.13;6.60;;;;;;;14.17;92.49;101058.47;5080162;28;20108;-49
2023/07/15 03:31:50;;;;;;;9.75;6.45;;;;;;;14.14;92.26;101068.84;5070387;28;20029;-50
2023/07/15 03:34:16;;;;;;;7.15;5.47;;;;;;;14.17;92.28;101063.03;5068925;28;20028;-50
2023/07/15 03:36:43;;;;;;;11.90;6.40;;;;;;;14.21;91.77;101061.50;5070992;28;20032;-50
2023/07/15 03:39:09;;;;;;;11.75;6.95;;;;;;;14.14;92.23;101069.66;5077395;28;20024;-49
2023/07/15 03:41:36;;;;;;;7.18;5.85;;;;;;;14.07;92.86;101078.88;5080586;28;20028;-50
2023/07/15 03:44:03;;;;;;;11.07;6.68;;;;;;;14.03;92.87;101081.16;5091900;28;20095;-49
2023/07/15 03:46:30;;;;;;;12.50;6.70;;;;;;;13.87;93.71;101085.25;5091525;28;20048;-51
2023/07/15 03:48:57;;;;;;;11.75;7.03;;;;;;;13.80;93.62;101084.50;5088950;28;20036;-51
2023/07/15 03:51:23;;;;;;;10.02;6.40;;;;;;;13.82;93.73;101081.59;5063166;28;20490;-51
2023/07/15 03:53:50;;;;;;;12.05;6.38;;;;;;;13.69;94.87;101082.53;5078867;28;20060;-51
2023/07/15 03:56:16;;;;;;;12.65;7.07;;;;;;;13.60;95.24;101073.94;5072123;28;20532;-52
2023/07/15 03:58:42;;;;;;;12.30;7.35;;;;;;;13.57;96.10;101078.94;5072588;28;20028;-50
2023/07/15 04:01:09;;;;;;;11.27;6.45;;;;;;;13.53;96.36;101080.41;5071254;28;20056;-50
2023/07/15 04:03:35;;;;;;;9.98;7.10;;;;;;;13.56;96.43;101082.66;5071653;28;20387;-48
2023/07/15 04:06:01;;;;;;;9.32;6.30;;;;;;;13.64;96.16;101091.25;5071640;28;20437;-50
2023/07/15 04:08:28;;;;;;;11.95;5.88;;;;;;;13.74;94.99;101101.53;5071441;28;20032;-50
2023/07/15 04:10:54;;;;;;;10.50;6.03;;;;;;;13.56;95.87;101083.50;5091734;28;20024;-50
2023/07/15 04:13:20;;;;;;;10.25;6.07;;;;;;;13.65;95.16;101092.91;5091551;28;20031;-51
2023/07/15 04:15:47;;;;;;;10.52;6.25;;;;;;;13.66;94.73;101093.75;5091221;28;20105;-50
2023/07/15 04:18:13;;;;;;;9.77;5.45;;;;;;;13.85;93.79;101086.53;5089672;28;20081;-47
2023/07/15 04:20:39;;;;;;;11.98;5.72;;;;;;;13.79;93.30;101082.88;5086335;28;20028;-48
2023/07/15 04:23:05;;;;;;;14.02;6.72;;;;;;;13.77;93.85;101092.19;5084989;28;20039;-51
2023/07/15 04:25:31;;;;;;;10.15;5.32;;;;;;;13.84;93.18;101088.41;5089015;28;20508;-50
2023/07/15 04:27:58;;;;;;;10.60;6.18;;;;;;;13.86;93.32;101085.50;5078623;28;20029;-51
2023/07/15 04:30:24;;;;;;;8.90;5.95;;;;;;;13.81;93.74;101090.72;5081131;28;20103;-50
2023/07/15 04:32:50;;;;;;;10.52;5.95;;;;;;;13.76;94.11;101083.28;5088214;28;20492;-50
2023/07/15 04:35:16;;;;;;;10.98;6.07;;;;;;;13.80;93.84;101079.13;5089731;28;20028;-45
2023/07/15 04:37:43;;;;;;;9.15;5.78;;;;;;;13.79;93.91;101087.44;5090394;28;20024;-51
2023/07/15 04:40:11;;;;;;;11.95;6.03;;;;;;;13.81;93.64;101086.16;5084312;28;20036;-49
2023/07/15 04:42:37;;;;;;;11.48;6.53;;;;;;;13.63;94.04;101086.13;5084477;28;20040;-49
2023/07/15 04:45:04;;;;;;;11.68;5.93;;;;;;;13.70;93.97;101092.25;5078562;28;20063;-51
2023/07/15 04:47:30;;;;;;;8.23;6.15;;;;;;;13.57;95.01;101095.88;5090945;28;20044;-49
2023/07/15 04:49:56;;;;;;;8.30;5.40;;;;;;;13.58;94.81;101096.72;5093476;28;20031;-50
2023/07/15 04:52:23;;;;;;;12.35;6.72;;;;;;;13.43;95.04;101095.16;5094083;28;20115;-51
2023/07/15 04:54:49;;;;;;;11.13;5.75;;;;;;;13.46;94.98;101108.16;5094516;28;20016;-51
2023/07/15 04:57:16;;;;;;;11.55;5.63;;;;;;;13.51;95.38;101096.75;5094552;28;20016;-50
2023/07/15 04:59:45;;;;;;;10.77;5.60;;;;;;;13.45;95.54;101103.84;5085416;28;20169;-51
2023/07/15 05:02:11;;;;;;;8.75;5.05;;;;;;;13.45;95.82;101098.47;5074134;28;20075;-49
2023/07/15 05:04:38;;;;;;;9.65;5.40;;;;;;;13.43;95.95;101103.22;5073982;28;20032;-51
2023/07/15 05:07:04;;;;;;;9.65;5.75;;;;;;;13.42;95.38;101100.75;5074313;28;20028;-47
2023/07/15 05:09:31;;;;;;;7.70;4.75;;;;;;;13.47;94.93;101107.13;5073695;28;20136;-50
2023/07/15 05:11:58;;;;;;;7.85;5.47;;;;;;;13.34;95.76;101101.03;5074049;28;20027;-48
2023/07/15 05:14:24;;;;;;;7.72;4.85;;;;;;;13.40;95.56;101106.34;5073938;28;20090;-50
2023/07/15 05:16:51;;;;;;;6.30;4.95;;;;;;;13.39;95.25;101115.47;5088902;28;20052;-46
2023/07/15 05:19:17;;;;;;;9.90;4.55;;;;;;;13.37;95.51;101111.34;5093638;28;20474;-50
2023/07/15 05:21:43;;;;;;;7.03;5.55;;;;;;;13.27;95.55;101114.53;5094190;28;20484;-50
2023/07/15 05:24:09;;;;;;;7.20;4.55;;;;;;;13.30;96.02;101118.63;5093867;28;20024;-48
2023/07/15 05:26:35;;;;;;;6.47;4.40;;;;;;;13.31;96.05;101126.47;5093839;28;20020;-50
2023/07/15 05:29:02;;;;;;;8.75;5.55;;;;;;;13.31;96.09;101122.97;5093551;28;20024;-51
2023/07/15 05:31:29;;;;;;;7.07;4.55;;;;;;;13.29;96.21;101131.25;5093262;28;20024;-48
2023/07/15 05:33:55;;;;;;;8.20;4.93;;;;;;;13.27;96.13;101127.97;5093476;28;20035;-48
2023/07/15 05:36:21;;;;;;;9.32;5.03;;;;;;;13.23;96.83;101110.63;5084221;28;20028;-48
2023/07/15 05:38:47;;;;;;;6.57;4.65;;;;;;;13.23;96.95;101120.53;5073131;28;20386;-47
2023/07/15 05:41:14;;;;;;;7.45;4.72;;;;;;;13.27;96.92;101127.97;5073144;28;20024;-46
2023/07/15 05:43:40;;;;;;;7.45;4.70;;;;;;;13.24;96.66;101125.69;5073171;28;20029;-48
2023/07/15 05:46:06;;;;;;;8.93;5.57;;;;;;;13.17;97.10;101127.56;5079296;28;20044;-47
2023/07/15 05:48:32;;;;;;;7.55;4.85;;;;;;;13.26;96.94;101128.16;5093527;28;20359;-51
2023/07/15 05:50:59;;;;;;;7.45;4.72;;;;;;;13.28;96.77;101123.41;5092801;28;20102;-49
2023/07/15 05:53:25;;;;;;;7.28;4.65;;;;;;;13.21;96.87;101128.81;5096645;28;20114;-50
2023/07/15 05:55:52;;;;;;;6.88;5.20;;;;;;;13.17;97.08;101124.91;5093232;28;20107;-51
2023/07/15 05:58:18;;;;;;;7.85;5.18;;;;;;;13.26;96.94;101125.47;5089038;28;20050;-50
2023/07/15 06:00:44;;;;;;;7.82;5.00;;;;;;;13.22;97.01;101117.03;5091171;28;20027;-51
2023/07/15 06:03:10;;;;;;;7.15;4.93;;;;;;;13.21;97.46;101115.38;5091818;28;20535;-48
2023/07/15 06:05:36;;;;;;;8.98;4.53;;;;;;;13.28;96.84;101120.72;5092837;28;20028;-50
2023/07/15 06:08:03;;;;;;;7.90;5.18;;;;;;;13.29;96.81;101125.88;5090643;28;20040;-47
2023/07/15 06:10:29;;;;;;;9.75;5.43;;;;;;;13.27;96.88;101110.97;5090957;28;20704;-51
2023/07/15 06:12:55;;;;;;;7.85;4.95;;;;;;;13.26;97.02;101115.53;5092962;28;20017;-49
2023/07/15 06:15:22;;;;;;;12.48;5.47;;;;;;;13.24;97.25;101125.69;5091903;28;20165;-48
2023/07/15 06:17:48;;;;;;;7.60;5.03;;;;;;;13.23;97.22;101121.38;5092087;28;20048;-50
2023/07/15 06:20:18;;;;;;;8.85;5.18;;;;;;;13.29;96.97;101120.50;5090559;28;20059;-49
2023/07/15 06:22:45;;;;;;;10.30;5.32;;;;;;;13.34;96.91;101127.91;5090172;28;20024;-47
2023/07/15 06:25:12;;;;;;;7.25;5.13;;;;;;;13.32;97.01;101133.50;5082583;28;20031;-50
2023/07/15 06:27:38;;;;;;;10.00;4.53;;;;;;;13.46;96.40;101124.31;5089044;28;20054;-48
2023/07/15 06:30:06;;;;;;;8.13;4.82;;;;;;;13.39;96.75;101128.91;5091085;28;20031;-49
2023/07/15 06:32:33;;;;;;;7.40;5.07;;;;;;;13.46;95.88;101132.38;5090742;28;20035;-50
2023/07/15 06:34:59;;;;;;;8.10;5.03;;;;;;;13.39;96.13;101128.91;5092639;28;20101;-50
2023/07/15 06:37:25;;;;;;;8.75;4.90;;;;;;;13.36;96.43;101120.44;5090922;28;20097;-50
2023/07/15 06:39:51;;;;;;;8.98;4.97;;;;;;;13.37;96.61;101130.16;5091430;28;20513;-50
2023/07/15 06:42:18;;;;;;;9.77;4.90;;;;;;;13.38;96.86;101129.97;5086709;28;20056;-49
2023/07/15 06:44:44;;;;;;;8.18;5.00;;;;;;;13.42;96.60;101133.84;5078612;28;20039;-47
2023/07/15 06:47:11;;;;;;;8.65;5.10;;;;;;;13.37;97.01;101133.66;5091426;28;20072;-48
2023/07/15 06:49:37;;;;;;;8.20;4.65;;;;;;;13.34;97.21;101131.44;5091160;28;20048;-49
2023/07/15 06:52:03;;;;;;;7.25;5.40;;;;;;;13.42;96.73;101133.03;5086727;28;20075;-49
2023/07/15 06:54:31;;;;;;;10.82;5.03;;;;;;;13.41;96.87;101128.69;5076208;28;20031;-47
2023/07/15 06:56:58;;;;;;;10.35;5.05;;;;;;;13.41;97.16;101126.81;5076948;28;20402;-51
2023/07/15 06:59:24;;;;;;;6.85;4.95;;;;;;;13.39;96.89;101126.22;5088626;28;20512;-50
2023/07/15 07:01:50;;;;;;;9.93;4.47;;;;;;;13.52;96.26;101128.00;5091477;28;20470;-47
2023/07/15 07:04:16;;;;;;;7.65;4.90;;;;;;;13.42;96.68;101123.09;5090309;28;20020;-47
2023/07/15 07:06:42;;;;;;;9.07;5.15;;;;;;;13.43;96.60;101127.41;5090646;28;20046;-51
2023/07/15 07:09:09;;;;;;;6.80;4.97;;;;;;;13.48;96.54;101124.06;5088737;28;20039;-51
2023/07/15 07:11:35;;;;;;;7.35;4.90;;;;;;;13.51;96.06;101117.47;5091173;28;20035;-50
2023/07/15 07:14:01;;;;;;;9.32;5.60;;;;;;;13.53;95.87;101126.94;5091427;28;20024;-47
2023/07/15 07:16:27;;;;;;;12.98;5.28;;;;;;;13.49;96.32;101123.03;5089892;28;20028;-52
2023/07/15 07:18:54;;;;;;;9.80;5.55;;;;;;;13.43;96.83;101123.91;5078463;23;20057;-50
2023/07/15 07:21:20;;;;;;;10.07;5.22;;;;;;;13.52;96.67;101127.16;5058701;28;20028;-49
2023/07/15 07:23:52;;;;;;;11.98;5.50;;;;;;;13.56;96.54;101125.69;5064402;28;20120;-50
2023/07/15 07:26:18;;;;;;;8.85;4.97;;;;;;;13.55;96.03;101118.66;5052414;28;20025;-48
2023/07/15 07:28:45;;;;;;;9.68;5.25;;;;;;;13.53;96.52;101118.06;5070489;28;20437;-48
2023/07/15 07:31:15;;;;;;;6.28;4.28;;;;;;;13.50;96.55;101118.50;5070541;28;20032;-47
2023/07/15 07:33:42;;;;;;;8.23;4.63;;;;;;;13.50;96.38;101113.13;5070957;28;20075;-48
2023/07/15 07:36:08;;;;;;;8.98;5.28;;;;;;;13.46;96.56;101110.84;5070612;28;20020;-50
2023/07/15 07:38:35;;;;;;;6.30;4.70;;;;;;;13.51;96.51;101123.66;5069191;28;20066;-47
2023/07/15 07:41:19;;;;;;;12.38;5.47;;;;;;;13.47;96.88;101122.44;5059919;28;20078;-50
2023/07/15 07:43:45;;;;;;;7.68;4.47;;;;;;;13.51;96.64;101117.47;5057332;28;20036;-47
2023/07/15 07:46:12;;;;;;;7.80;4.68;;;;;;;13.43;97.24;101119.34;5066715;28;20036;-46
2023/07/15 07:48:38;;;;;;;7.50;5.05;;;;;;;13.50;96.82;101118.50;5061324;28;20115;-49
2023/07/15 07:51:04;;;;;;;9.00;4.88;;;;;;;13.52;96.49;101114.53;5054123;28;20498;-47
2023/07/15 07:53:31;;;;;;;8.00;4.43;;;;;;;13.47;96.29;101109.00;5049006;28;20539;-47
2023/07/15 07:55:57;;;;;;;7.47;4.90;;;;;;;13.45;96.63;101114.59;5049592;28;20036;-47
2023/07/15 07:58:24;;;;;;;6.57;4.43;;;;;;;13.41;97.09;101112.56;5051397;28;20049;-47
2023/07/15 08:00:50;;;;;;;7.38;4.72;;;;;;;13.45;96.44;101106.53;5048307;28;20036;-47
2023/07/15 08:03:16;;;;;;;11.45;4.18;;;;;;;13.48;96.79;101108.75;5032639;28;20545;-49
2023/07/15 08:05:47;;;;;;;6.18;3.92;;;;;;;13.54;95.86;101107.06;5031441;28;20171;-51
2023/07/15 08:08:14;;;;;;;6.80;4.93;;;;;;;13.55;95.91;101099.81;5031164;28;20033;-49
2023/07/15 08:10:41;;;;;;;7.00;4.30;;;;;;;13.51;96.02;101101.31;5030764;28;20021;-49
2023/07/15 08:13:07;;;;;;;8.93;4.55;;;;;;;13.42;96.46;101098.88;5031229;28;20033;-49
2023/07/15 08:15:37;;;;;;;5.95;3.88;;;;;;;13.42;96.91;101098.88;5031090;28;20485;-48
2023/07/15 08:18:04;;;;;;;5.18;4.18;;;;;;;13.51;96.62;101104.00;5031101;28;20115;-48
2023/07/15 08:20:31;;;;;;;6.78;4.15;;;;;;;13.38;97.55;101103.06;5032605;28;20144;-49
2023/07/15 08:22:58;;;;;;;5.40;4.00;;;;;;;13.33;97.63;101102.91;5034878;28;20029;-46
2023/07/15 08:25:24;;;;;;;6.72;4.45;;;;;;;13.35;97.46;101097.28;5034752;28;20028;-50
2023/07/15 08:27:51;;;;;;;6.88;4.00;;;;;;;13.34;97.76;101093.78;5034574;28;20371;-49
2023/07/15 08:30:19;;;;;;;6.50;4.45;;;;;;;13.31;98.18;101101.47;5017057;28;20029;-48
2023/07/15 08:32:45;;;;;;;5.88;4.43;;;;;;;13.38;97.60;101103.06;5034764;28;20377;-49
2023/07/15 08:35:11;;;;;;;6.07;4.10;;;;;;;13.43;97.40;101107.78;5043880;28;20499;-50
2023/07/15 08:37:37;;;;;;;6.78;4.03;;;;;;;13.51;96.83;101101.31;5043226;28;20041;-48
2023/07/15 08:40:07;;;;;;;10.30;4.75;;;;;;;13.46;97.03;101102.78;5052768;28;20055;-50
2023/07/15 08:42:36;;;;;;;7.70;4.60;;;;;;;13.44;97.31;101107.56;5044134;28;20468;-49
2023/07/15 08:45:02;;;;;;;9.50;4.65;;;;;;;13.40;97.77;101100.16;5034526;28;20557;-50
2023/07/15 08:47:29;;;;;;;5.43;4.07;;;;;;;13.47;97.06;101104.44;5034324;28;20025;-50
2023/07/15 08:49:59;;;;;;;7.63;4.00;;;;;;;13.29;97.70;101112.44;5034285;28;20843;-49
2023/07/15 08:52:26;;;;;;;9.25;4.15;;;;;;;13.34;98.18;101096.47;5034252;28;20090;-47
2023/07/15 08:54:53;;;;;;;8.07;4.20;;;;;;;13.32;98.10;101103.91;5040733;28;20119;-51
2023/07/15 08:57:22;;;;;;;6.15;4.22;;;;;;;13.34;98.31;101106.41;5036686;28;20036;-46
2023/07/15 08:59:50;;;;;;;8.55;4.10;;;;;;;13.42;97.68;101098.06;5033863;28;20088;-50
2023/07/15 09:02:16;;;;;;;5.68;3.55;;;;;;;13.40;97.81;101100.16;5033971;28;20365;-50
2023/07/15 09:04:43;;;;;;;7.13;4.30;;;;;;;13.45;97.45;101103.03;5034559;28;20021;-48
2023/07/15 09:07:09;;;;;;;6.07;3.03;;;;;;;13.28;98.42;101100.03;5034274;28;20424;-50
2023/07/15 09:09:39;;;;;;;5.72;3.60;;;;;;;13.33;97.80;101102.09;5033879;28;20022;-49
2023/07/15 09:12:14;;;;;;;7.90;4.07;;;;;;;13.25;98.39;101103.16;5033854;28;20021;-50
2023/07/15 09:14:45;;;;;;;6.18;3.60;;;;;;;13.30;98.26;101111.38;5034015;28;20087;-48
2023/07/15 09:17:24;;;;;;;6.20;3.72;;;;;;;13.28;98.29;101102.72;5033511;28;20025;-47
2023/07/15 09:19:50;;;;;;;6.55;3.47;;;;;;;13.31;98.03;101098.75;5033459;28;20029;-50
2023/07/15 09:22:18;;;;;;;5.93;3.45;;;;;;;13.34;97.66;101101.84;5033642;28;20104;-51
2023/07/15 09:24:45;;;;;;;5.65;3.97;;;;;;;13.39;97.65;101091.28;5033824;28;20017;-48
2023/07/15 09:27:11;;;;;;;6.20;3.60;;;;;;;13.36;97.64;101091.69;5033845;28;20131;-50
2023/07/15 09:29:38;;;;;;;7.15;4.18;;;;;;;13.36;98.15;101086.31;5033509;28;20032;-47
2023/07/15 09:32:08;;;;;;;6.25;3.70;;;;;;;13.31;98.10;101077.25;5044332;28;20029;-49
2023/07/15 09:34:40;;;;;;;8.10;3.97;;;;;;;13.25;98.39;101075.44;5053468;28;20036;-49
2023/07/15 09:37:06;;;;;;;7.30;4.20;;;;;;;13.26;98.22;101085.16;5053426;28;20383;-46
2023/07/15 09:39:32;;;;;;;5.88;3.38;;;;;;;13.23;98.14;101082.91;5053223;28;20491;-47
2023/07/15 09:42:07;;;;;;;4.28;3.10;;;;;;;13.20;98.35;101079.56;5053225;28;20029;-50
2023/07/15 09:44:38;;;;;;;6.82;3.25;;;;;;;13.24;98.38;101079.19;5053762;28;20033;-46
2023/07/15 09:47:06;;;;;;;5.68;3.58;;;;;;;13.27;98.24;101082.28;5053093;28;20025;-46
2023/07/15 09:49:33;;;;;;;8.25;3.95;;;;;;;13.30;98.40;101079.13;5053162;28;20036;-50
2023/07/15 09:52:02;;;;;;;5.25;3.05;;;;;;;13.28;98.73;101083.91;5052876;28;20475;-50
2023/07/15 09:54:32;;;;;;;4.75;3.25;;;;;;;13.38;97.74;101080.72;5053217;28;20082;-47
2023/07/15 09:57:09;;;;;;;4.65;3.22;;;;;;;13.32;97.71;101085.09;5038707;28;20387;-47
2023/07/15 09:59:48;;;;;;;4.07;2.63;;;;;;;13.34;97.28;101077.66;5052549;28;20036;-47
2023/07/15 10:02:34;;;;;;;4.63;2.95;;;;;;;13.41;97.18;101081.13;5053052;28;20028;-49
2023/07/15 10:05:04;;;;;;;5.47;2.75;;;;;;;13.31;97.40;101075.38;5052990;28;20090;-47
2023/07/15 10:07:31;;;;;;;5.28;2.58;;;;;;;13.32;97.77;101071.66;5053439;28;20021;-47
2023/07/15 10:10:00;;;;;;;5.03;2.95;;;;;;;13.39;97.44;101083.22;5052447;28;20036;-50
2023/07/15 10:12:28;;;;;;;5.28;2.78;;;;;;;13.28;97.60;101081.22;5052683;28;20047;-49
2023/07/15 10:14:55;;;;;;;4.03;2.60;;;;;;;13.23;97.90;101078.34;5052717;28;20024;-46
2023/07/15 10:17:21;;;;;;;5.07;3.05;;;;;;;13.34;97.18;101074.16;5052458;28;20037;-50
2023/07/15 10:19:50;;;;;;;4.45;2.35;;;;;;;13.26;97.29;101082.47;5052286;28;20037;-50
2023/07/15 10:22:23;;;;;;;3.53;2.35;;;;;;;13.32;96.80;101082.41;5052542;28;20438;-50
2023/07/15 10:24:57;;;;;;;3.42;2.40;;;;;;;13.22;97.53;101082.09;5052573;28;20021;-50
2023/07/15 10:27:31;;;;;;;6.65;2.75;;;;;;;13.32;97.31;101079.72;5052565;28;20025;-50
2023/07/15 10:30:26;;;;;;;4.63;2.63;;;;;;;13.27;97.74;101074.22;5052061;28;20040;-49
2023/07/15 10:33:03;;;;;;;3.47;2.70;;;;;;;13.26;97.73;101079.78;5052411;28;20021;-50
2023/07/15 10:35:34;;;;;;;3.85;2.72;;;;;;;13.30;97.21;101078.31;5052310;28;20029;-48
2023/07/15 10:38:23;;;;;;;4.15;2.50;;;;;;;13.30;97.05;101081.81;5052086;28;20021;-50
2023/07/15 10:41:00;;;;;;;4.03;2.95;;;;;;;13.31;97.81;101075.38;5052078;28;20446;-49
2023/07/15 10:43:35;;;;;;;4.32;2.72;;;;;;;13.34;97.10;101069.59;5052001;28;20025;-49
2023/07/15 10:46:07;;;;;;;3.75;2.42;;;;;;;13.22;97.50;101063.28;5052233;28;20116;-51
2023/07/15 10:48:33;;;;;;;3.88;2.70;;;;;;;13.19;97.60;101071.72;5051735;28;20021;-50
2023/07/15 10:51:04;;;;;;;4.28;2.55;;;;;;;13.19;98.09;101069.03;5051732;28;20059;-49
2023/07/15 10:58:35;;;;;;;3.63;2.70;;;;;;;13.20;97.95;101071.50;4990569;28;20065;-47
2023/07/15 11:01:03;;;;;;;4.07;2.13;;;;;;;13.21;97.79;101072.34;4992784;28;20060;-50
2023/07/15 11:03:36;;;;;;;3.03;2.20;;;;;;;13.28;97.58;101072.34;4992355;28;20026;-49
2023/07/15 11:06:03;;;;;;;2.50;1.75;;;;;;;13.33;96.91;101076.00;4992482;28;20362;-49
2023/07/15 11:08:30;;;;;;;2.63;2.05;;;;;;;13.36;96.60;101078.25;4992900;28;20034;-48
2023/07/15 11:11:07;;;;;;;3.55;2.60;;;;;;;13.50;95.89;101080.84;4992577;28;20499;-49
2023/07/15 11:13:38;;;;;;;4.88;2.55;;;;;;;13.46;95.97;101078.59;4992196;28;20038;-48
2023/07/15 11:16:05;;;;;;;5.60;2.75;;;;;;;13.44;95.92;101071.81;4991139;28;20385;-50
2023/07/15 11:18:31;;;;;;;3.45;2.33;;;;;;;13.38;96.06;101075.34;4992235;28;20018;-49
2023/07/15 11:21:00;;;;;;;2.22;1.90;;;;;;;13.30;96.08;101073.75;4992845;28;20510;-50
2023/07/15 11:23:30;;;;;;;3.13;1.48;;;;;;;13.40;95.32;101079.47;4992413;28;20037;-50
2023/07/15 11:25:58;;;;;;;2.88;2.05;;;;;;;13.39;95.24;101075.13;4992177;28;20392;-50
2023/07/15 11:28:24;;;;;;;3.50;2.40;;;;;;;13.33;95.39;101069.81;4992212;28;20018;-49
2023/07/15 11:30:51;;;;;;;3.45;2.00;;;;;;;13.26;95.77;101071.72;4992525;28;20026;-49
2023/07/15 11:33:17;;;;;;;4.22;1.80;;;;;;;13.22;96.39;101081.28;4992548;28;20057;-49